Rehoboth, DE

3:58 PM EDT on September 01, 2014 (GMT -0400)
Bay Vista | Change Station
CLOSE
Current Station
Personal Weather Station
Location: Rehoboth Beach, DE
Elevation: 20 ft
Nearby Weather Stations

Elev 20 ft 38.70 °N, 75.10 °W | Updated 5 seconds ago

Partly Cloudy
Partly Cloudy
85.8 °F
Feels Like 99 °F
N
3.5
Wind Variable Wind from SSE
Gusts 3.5 mph

Today
High -- | Low -- °F
--% Chance of Precip.
Yesterday
High -- | Low -- °F
Precip. -- in
6:29 AM 7:30 PM
Waxing Crescent, 43% visible
Pressure 29.96 in
Visibility 10.0 miles
Clouds Few 4400 ft
Heat Index 99 °F
Dew Point 78 °F
Humidity 79%
Rainfall 0.00 in
Snow Depth Not available.
UV 5 out of 12
Pollen 6.20 out of 12
Air Quality Not available.
Flu Activity Not available.
METAR KGED 011954Z AUTO 19010KT 10SM FEW044 33/21 A2996 RMK AO2 LTG DSNT NE SLP146 T03280211

More Conditions Fewer Conditions

Pressure 29.96 in
Visibility 10.0 miles
Clouds Few 4400 ft
Heat Index 99 °F
Dew Point 78 °F
Humidity 79%
Rainfall 0.00 in
Snow Depth Not available.
UV 5 out of 12
Pollen 6.20 out of 12
Air Quality Not available.
Flu Activity Not available.
METAR KGED 011954Z AUTO 19010KT 10SM FEW044 33/21 A2996 RMK AO2 LTG DSNT NE SLP146 T03280211

More Conditions Fewer Conditions

10-Day Weather Forecast

Almanac

Astronomy

Sep. 01, 2014 Rise Set
Actual Time 6:29 AM EDT 7:30 PM EDT
Civil Twilight 6:02 AM EDT 7:57 PM EDT
Nautical Twilight 5:29 AM EDT 8:30 PM EDT
Astronomical Twilight 4:56 AM EDT 9:03 PM EDT
Moon 1:08 PM EDT 11:34 PM EDT
Length of Visible Light 13h 55m
Length of Day
13h 01m
Tomorrow will be 2m 24s shorter.
Waxing Crescent, 43% of the Moon is Illuminated
Today
Waxing Crescent
Sep 2
First Quarter
Sep 8
Full
Sep 15
Last Quarter
Sep 24
New

Today's Extremes

State Highs State Lows

Community

WunderPhotos

Upload Photos

1,749,387 photos uploaded!

WunderBlogs® & News

Nearby

Snow Depth

Station Depth Elevation
No new snow has been reported.

Earthquake Activity

City Distance Mag. Time & Date
No recent earthquake activity has been reported nearby.
Minimum magnitude displayed is 2.5.

Coastal Water Temperatures

Place Temperature
Ocean City Inlet, MD 77.0 °F
Lewes, DE 78.1 °F
Cape May, NJ 81.0 °F

Nearby Weather Stations